Time;durP1;ratioP1;P1;durP2;ratioP2;P2;SDS_P1;SDS_P2;PMS_P1;PMS_P2;Temp;Humidity;BMP_temperature;BMP_pressure;BME280_temperature;BME280_humidity;BME280_pressure;Samples;Min_cycle;Max_cycle;Signal;HPM_P1;HPM_P2
2024/02/16 00:02:03;;;;;;;9.48;5.88;;;8.30;99.90;;;;;;5014370;28;20061;-42
2024/02/16 00:04:30;;;;;;;12.43;6.35;;;8.30;99.90;;;;;;5011796;28;20030;-42
2024/02/16 00:06:57;;;;;;;8.48;6.03;;;8.30;99.90;;;;;;5015842;28;20113;-42
2024/02/16 00:09:25;;;;;;;12.77;6.45;;;8.40;99.90;;;;;;5010769;28;20042;-39
2024/02/16 00:11:52;;;;;;;8.27;5.05;;;8.50;99.90;;;;;;5014768;28;20038;-45
2024/02/16 00:14:19;;;;;;;10.48;6.10;;;8.50;99.90;;;;;;5013101;28;20099;-42
2024/02/16 00:16:47;;;;;;;11.77;6.28;;;8.60;99.90;;;;;;5010377;28;20139;-40
2024/02/16 00:19:14;;;;;;;9.80;5.47;;;8.70;99.90;;;;;;5014702;28;20135;-46
2024/02/16 00:21:42;;;;;;;10.88;5.57;;;8.70;99.90;;;;;;5016579;28;20064;-42
2024/02/16 00:24:09;;;;;;;10.73;5.15;;;8.80;99.90;;;;;;5010917;28;20050;-42
2024/02/16 00:26:39;;;;;;;8.77;5.45;;;8.80;99.90;;;;;;5012520;28;20077;-42
2024/02/16 00:29:06;;;;;;;8.52;4.90;;;8.80;99.90;;;;;;5010964;28;20109;-40
2024/02/16 00:31:33;;;;;;;9.77;4.97;;;8.90;99.90;;;;;;5011799;28;20046;-44
2024/02/16 00:34:01;;;;;;;7.75;4.55;;;9.00;99.90;;;;;;5010915;28;20117;-43
2024/02/16 00:36:30;;;;;;;8.23;4.45;;;9.00;99.90;;;;;;4991844;28;20046;-40
2024/02/16 00:38:58;;;;;;;8.82;5.03;;;9.10;99.90;;;;;;5010077;28;20053;-40
2024/02/16 00:41:25;;;;;;;8.07;4.90;;;9.10;99.90;;;;;;5014174;28;20077;-42
2024/02/16 00:43:53;;;;;;;8.23;4.47;;;9.10;99.90;;;;;;5009318;28;20038;-41
2024/02/16 00:46:22;;;;;;;7.65;4.80;;;9.10;99.90;;;;;;5014395;28;20045;-44
2024/02/16 00:48:51;;;;;;;8.73;4.57;;;9.10;99.90;;;;;;5014603;28;20125;-45
2024/02/16 00:51:18;;;;;;;8.32;4.70;;;9.10;99.90;;;;;;5016982;28;20065;-44
2024/02/16 00:53:45;;;;;;;8.27;4.47;;;9.10;99.90;;;;;;5020310;28;20062;-46
2024/02/16 00:56:13;;;;;;;8.27;4.72;;;9.10;99.90;;;;;;5019709;28;20064;-44
2024/02/16 00:58:42;;;;;;;7.68;4.88;;;9.10;99.90;;;;;;5013026;28;20076;-40
2024/02/16 01:01:11;;;;;;;10.93;6.47;;;9.10;99.90;;;;;;5016112;28;20045;-46
2024/02/16 01:03:38;;;;;;;12.15;6.43;;;9.00;99.90;;;;;;5015735;28;20053;-44
2024/02/16 01:06:06;;;;;;;8.52;5.28;;;9.00;99.90;;;;;;5014698;28;20568;-46
2024/02/16 01:08:33;;;;;;;10.25;5.35;;;9.00;99.90;;;;;;5016986;28;20037;-47
2024/02/16 01:11:00;;;;;;;8.93;5.07;;;9.00;99.90;;;;;;5018452;28;20116;-41
2024/02/16 01:13:27;;;;;;;10.63;5.25;;;9.00;99.90;;;;;;5018735;28;20038;-43
2024/02/16 01:15:54;;;;;;;8.68;5.10;;;9.00;99.90;;;;;;5008154;28;20046;-42
2024/02/16 01:18:21;;;;;;;10.75;5.20;;;9.00;99.90;;;;;;5014692;28;20041;-41
2024/02/16 01:20:48;;;;;;;10.73;6.05;;;8.90;99.90;;;;;;5011793;28;20089;-44
2024/02/16 01:23:15;;;;;;;10.50;5.93;;;8.90;99.90;;;;;;5012696;28;20049;-43
2024/02/16 01:25:42;;;;;;;8.93;5.18;;;8.90;99.90;;;;;;5014403;28;20045;-40
2024/02/16 01:28:12;;;;;;;11.25;6.43;;;8.90;99.90;;;;;;5017326;28;20130;-42
2024/02/16 01:30:39;;;;;;;12.88;7.28;;;8.90;99.90;;;;;;5013303;28;20041;-41
2024/02/16 01:33:06;;;;;;;15.60;7.50;;;8.90;99.90;;;;;;5015689;28;20052;-45
2024/02/16 01:35:34;;;;;;;10.85;6.82;;;8.90;99.90;;;;;;5012359;28;20127;-42
2024/02/16 01:38:01;;;;;;;12.68;6.80;;;8.80;99.90;;;;;;5014675;28;20213;-42
2024/02/16 01:40:28;;;;;;;10.88;6.43;;;8.80;99.90;;;;;;5009479;28;20439;-42
2024/02/16 01:42:56;;;;;;;12.70;6.38;;;8.80;99.90;;;;;;5016320;28;20510;-42
2024/02/16 01:45:23;;;;;;;11.77;7.20;;;8.80;99.90;;;;;;5014604;28;20064;-39
2024/02/16 01:47:51;;;;;;;11.95;6.32;;;8.80;99.90;;;;;;5016433;28;20061;-44
2024/02/16 01:50:19;;;;;;;10.15;6.45;;;8.80;99.90;;;;;;5013386;28;20075;-46
2024/02/16 01:52:48;;;;;;;10.48;6.72;;;8.80;99.90;;;;;;5016942;28;20034;-42
2024/02/16 01:55:17;;;;;;;10.15;6.20;;;8.80;99.90;;;;;;5019711;28;20586;-44
2024/02/16 01:57:45;;;;;;;8.60;5.82;;;8.80;99.90;;;;;;4994754;28;20431;-39
2024/02/16 02:00:14;;;;;;;8.75;5.68;;;8.80;99.90;;;;;;5008873;28;20058;-40
2024/02/16 02:02:46;;;;;;;10.10;5.55;;;8.70;99.90;;;;;;5002864;28;20050;-41
2024/02/16 02:05:14;;;;;;;10.13;6.18;;;8.80;99.90;;;;;;5014177;28;20063;-43
2024/02/16 02:07:43;;;;;;;10.13;5.85;;;8.80;99.90;;;;;;5011321;28;20042;-46
2024/02/16 02:10:13;;;;;;;9.35;5.78;;;8.70;99.90;;;;;;5011963;28;20110;-38
2024/02/16 02:12:42;;;;;;;11.13;7.07;;;8.70;99.90;;;;;;5012351;28;20148;-39
2024/02/16 02:15:09;;;;;;;11.25;6.00;;;8.70;99.90;;;;;;5012114;28;20469;-40
2024/02/16 02:17:36;;;;;;;10.50;5.90;;;8.70;99.90;;;;;;5011769;28;20054;-41
2024/02/16 02:20:04;;;;;;;9.32;6.00;;;8.70;99.90;;;;;;5014567;28;20111;-41
2024/02/16 02:22:31;;;;;;;14.95;6.30;;;8.70;99.90;;;;;;5005521;28;20138;-41
2024/02/16 02:24:58;;;;;;;11.68;6.00;;;8.70;99.90;;;;;;5008984;28;20040;-43
2024/02/16 02:27:25;;;;;;;12.43;6.90;;;8.70;99.90;;;;;;5008006;28;20057;-42
2024/02/16 02:29:52;;;;;;;11.77;6.10;;;8.80;99.90;;;;;;5012919;28;20030;-42
2024/02/16 02:32:19;;;;;;;11.02;5.28;;;8.80;99.90;;;;;;5011808;28;20049;-40
2024/02/16 02:34:46;;;;;;;7.97;5.03;;;8.80;99.90;;;;;;5007180;28;20037;-43
2024/02/16 02:37:13;;;;;;;9.65;4.93;;;8.80;99.90;;;;;;5011980;28;20463;-43
2024/02/16 02:39:40;;;;;;;6.85;4.50;;;8.80;99.90;;;;;;5010917;28;20042;-43
2024/02/16 02:42:08;;;;;;;9.10;4.90;;;8.80;99.90;;;;;;5014692;28;20058;-40
2024/02/16 02:44:35;;;;;;;9.68;5.05;;;8.80;99.90;;;;;;5005979;28;20325;-41
2024/02/16 02:47:02;;;;;;;8.15;4.28;;;8.80;99.90;;;;;;5010024;28;20204;-44
2024/02/16 02:49:29;;;;;;;9.65;4.40;;;8.80;99.90;;;;;;5008230;28;20521;-40
2024/02/16 02:51:56;;;;;;;9.40;5.00;;;8.80;99.90;;;;;;5006339;28;20042;-41
2024/02/16 02:54:23;;;;;;;9.02;5.07;;;8.80;99.90;;;;;;5013284;28;20045;-40
2024/02/16 02:56:50;;;;;;;7.07;4.60;;;8.90;99.90;;;;;;5006574;28;20065;-40
2024/02/16 02:59:17;;;;;;;7.85;4.72;;;8.80;99.90;;;;;;5013033;28;20119;-44
2024/02/16 03:01:45;;;;;;;9.63;4.38;;;8.90;99.90;;;;;;5005415;28;20034;-38
2024/02/16 03:04:12;;;;;;;6.65;4.63;;;8.90;99.90;;;;;;5010185;28;20407;-38
2024/02/16 03:06:39;;;;;;;7.60;4.43;;;8.90;99.90;;;;;;5011383;28;20715;-41
2024/02/16 03:09:06;;;;;;;7.55;4.38;;;8.90;99.90;;;;;;5010315;28;20060;-42
2024/02/16 03:11:33;;;;;;;6.72;3.83;;;9.00;99.90;;;;;;5010951;28;20537;-39
2024/02/16 03:14:00;;;;;;;9.60;4.30;;;9.00;99.90;;;;;;5012199;28;20128;-43
2024/02/16 03:16:27;;;;;;;9.18;3.97;;;9.00;99.90;;;;;;5008491;28;20509;-39
2024/02/16 03:18:55;;;;;;;6.10;3.90;;;9.00;99.90;;;;;;5008313;28;20049;-44
2024/02/16 03:21:22;;;;;;;7.43;4.53;;;9.00;99.90;;;;;;5015318;28;20510;-45
2024/02/16 03:23:49;;;;;;;7.97;4.60;;;9.10;99.90;;;;;;5004497;28;20042;-42
2024/02/16 03:26:18;;;;;;;9.88;4.53;;;9.10;99.90;;;;;;5014840;28;20061;-39
2024/02/16 03:28:47;;;;;;;8.70;4.45;;;9.10;99.90;;;;;;5002635;28;20682;-43
2024/02/16 03:31:17;;;;;;;8.95;4.60;;;9.00;99.90;;;;;;5011121;28;20049;-43
2024/02/16 03:33:44;;;;;;;8.93;4.30;;;9.00;99.90;;;;;;5009965;28;20521;-39
2024/02/16 03:36:12;;;;;;;7.90;4.43;;;9.00;99.90;;;;;;5006866;28;20046;-38
2024/02/16 03:38:51;;;;;;;7.28;4.18;;;9.00;99.90;;;;;;5010526;28;20514;-40
2024/02/16 03:41:21;;;;;;;6.55;4.07;;;9.00;99.90;;;;;;5011645;28;20109;-39
2024/02/16 03:43:48;;;;;;;8.63;4.45;;;9.00;99.90;;;;;;5008170;28;20252;-41
2024/02/16 03:46:15;;;;;;;7.88;4.90;;;9.10;99.90;;;;;;5013583;28;20030;-42
2024/02/16 03:48:42;;;;;;;9.00;4.35;;;9.00;99.90;;;;;;5006615;28;20313;-42
2024/02/16 03:51:09;;;;;;;8.55;5.10;;;9.00;99.90;;;;;;5010476;28;20751;-45
2024/02/16 03:53:36;;;;;;;9.52;4.85;;;9.00;99.90;;;;;;5010962;28;20510;-46
2024/02/16 03:56:05;;;;;;;6.95;4.35;;;9.00;99.90;;;;;;4997427;28;20049;-42
2024/02/16 03:58:32;;;;;;;9.52;4.43;;;9.00;99.90;;;;;;5012522;28;20049;-43
2024/02/16 04:00:59;;;;;;;8.98;4.50;;;8.90;99.90;;;;;;5016949;28;20042;-42
2024/02/16 04:03:27;;;;;;;8.23;4.32;;;8.90;99.90;;;;;;5011912;28;20053;-46
2024/02/16 04:05:54;;;;;;;9.70;4.35;;;8.90;99.90;;;;;;5012636;28;20042;-39
2024/02/16 04:08:21;;;;;;;6.32;4.20;;;8.90;99.90;;;;;;5007868;28;20053;-46
2024/02/16 04:10:48;;;;;;;8.93;4.47;;;8.90;99.90;;;;;;5010136;28;20049;-39
2024/02/16 04:13:15;;;;;;;6.97;4.28;;;8.90;99.90;;;;;;5010948;28;20041;-43
2024/02/16 04:15:42;;;;;;;9.20;4.70;;;8.90;99.90;;;;;;5005756;28;20038;-41
2024/02/16 04:18:09;;;;;;;6.63;4.57;;;8.90;99.90;;;;;;5013376;28;20068;-41
2024/02/16 04:20:37;;;;;;;7.85;4.63;;;8.90;99.90;;;;;;5016349;22;20521;-47
2024/02/16 04:23:04;;;;;;;10.35;5.70;;;8.90;99.90;;;;;;4991484;28;20078;-45
2024/02/16 04:25:31;;;;;;;10.10;6.13;;;8.90;99.90;;;;;;4988870;28;20046;-45
2024/02/16 04:27:59;;;;;;;11.27;6.13;;;8.90;99.90;;;;;;4992180;28;20104;-45
2024/02/16 04:30:25;;;;;;;9.82;5.40;;;8.90;99.90;;;;;;4980209;28;20070;-47
2024/02/16 04:32:52;;;;;;;7.95;5.10;;;8.90;99.90;;;;;;4971088;28;20058;-45
2024/02/16 04:35:20;;;;;;;11.15;5.13;;;8.90;99.90;;;;;;4976161;28;20344;-45
2024/02/16 04:37:47;;;;;;;8.57;5.00;;;9.00;99.90;;;;;;4972486;28;20551;-45
2024/02/16 04:40:14;;;;;;;9.85;5.53;;;9.00;99.90;;;;;;4971831;28;20407;-47
2024/02/16 04:42:41;;;;;;;9.80;5.43;;;9.00;99.90;;;;;;4969119;28;20142;-47
2024/02/16 04:45:11;;;;;;;9.02;5.38;;;9.00;99.90;;;;;;4971799;28;20430;-47
2024/02/16 04:47:39;;;;;;;12.98;6.38;;;9.10;99.90;;;;;;4970878;28;20061;-44
2024/02/16 04:50:09;;;;;;;10.80;5.47;;;9.10;99.90;;;;;;4974655;28;20057;-45
2024/02/16 04:52:38;;;;;;;9.23;5.80;;;9.20;99.90;;;;;;4968152;28;20061;-45
2024/02/16 04:55:06;;;;;;;9.57;5.35;;;9.20;99.90;;;;;;4972356;28;20642;-45
2024/02/16 04:57:35;;;;;;;9.35;5.50;;;9.20;99.90;;;;;;4968274;28;20158;-46
2024/02/16 05:00:03;;;;;;;8.18;5.53;;;9.30;99.90;;;;;;4972130;28;20096;-46
2024/02/16 05:02:30;;;;;;;10.25;6.53;;;9.30;99.90;;;;;;4971503;28;20441;-46
2024/02/16 05:04:57;;;;;;;9.13;5.68;;;9.30;99.90;;;;;;4969830;28;20045;-42
2024/02/16 05:07:31;;;;;;;9.38;6.10;;;9.20;99.90;;;;;;4968064;28;20128;-49
2024/02/16 05:09:58;;;;;;;10.13;5.78;;;9.20;99.90;;;;;;4973644;28;20506;-44
2024/02/16 05:12:26;;;;;;;10.85;6.20;;;9.20;99.90;;;;;;4972439;28;20344;-46
2024/02/16 05:14:54;;;;;;;10.85;6.47;;;9.20;99.90;;;;;;4978188;28;20117;-47
2024/02/16 05:17:24;;;;;;;10.32;6.55;;;9.20;99.90;;;;;;4965885;28;20143;-49
2024/02/16 05:19:51;;;;;;;11.57;6.70;;;9.20;99.90;;;;;;4970443;28;20508;-47
2024/02/16 05:22:18;;;;;;;9.85;6.15;;;9.20;99.90;;;;;;4973815;28;20507;-46
2024/02/16 05:24:46;;;;;;;11.27;6.82;;;9.10;99.90;;;;;;4968529;28;20062;-44
2024/02/16 05:27:13;;;;;;;9.52;6.38;;;9.20;99.90;;;;;;4971662;28;20576;-47
2024/02/16 05:29:41;;;;;;;9.75;6.82;;;9.10;99.90;;;;;;4971503;28;20050;-46
2024/02/16 05:32:08;;;;;;;11.65;7.00;;;9.10;99.90;;;;;;4970991;28;20491;-45
2024/02/16 05:34:38;;;;;;;12.63;7.15;;;9.10;99.90;;;;;;4972179;28;20606;-50
2024/02/16 05:37:06;;;;;;;11.40;7.35;;;9.00;99.90;;;;;;4972142;28;20073;-48
2024/02/16 05:39:43;;;;;;;10.73;6.80;;;9.10;99.90;;;;;;4969890;28;20756;-45
2024/02/16 05:42:10;;;;;;;11.48;7.55;;;9.00;99.90;;;;;;4972581;28;20273;-45
2024/02/16 05:44:37;;;;;;;11.90;8.20;;;9.00;99.90;;;;;;4965379;28;20485;-46
2024/02/16 05:47:04;;;;;;;26.70;16.50;;;9.00;99.90;;;;;;4974341;28;20069;-47
2024/02/16 05:49:31;;;;;;;33.22;20.45;;;9.00;99.90;;;;;;4975217;28;20099;-47
2024/02/16 05:55:00;;;;;;;18.90;11.00;;;9.00;99.90;;;;;;4946579;28;20130;-48
2024/02/16 05:57:28;;;;;;;15.70;9.80;;;9.10;99.90;;;;;;4946702;28;20130;-45
2024/02/16 05:59:55;;;;;;;19.05;11.18;;;9.10;99.90;;;;;;4933036;28;20063;-44
2024/02/16 06:02:25;;;;;;;14.15;9.55;;;9.00;99.90;;;;;;4948911;28;20055;-44
2024/02/16 06:04:53;;;;;;;17.38;10.32;;;9.10;99.90;;;;;;4949262;28;20062;-46
2024/02/16 06:07:20;;;;;;;12.95;8.98;;;9.00;99.90;;;;;;4948086;28;20130;-47
2024/02/16 06:09:48;;;;;;;13.70;8.23;;;9.00;99.90;;;;;;4953652;28;20043;-45
2024/02/16 06:12:15;;;;;;;12.27;8.40;;;9.10;99.90;;;;;;4949860;28;20039;-46
2024/02/16 06:14:43;;;;;;;14.32;8.52;;;9.00;99.90;;;;;;4955150;28;20088;-46
2024/02/16 06:17:10;;;;;;;13.32;9.02;;;9.10;99.90;;;;;;4953919;28;20127;-44
2024/02/16 06:19:37;;;;;;;14.30;8.13;;;9.00;99.90;;;;;;4948874;28;20069;-47
2024/02/16 06:22:04;;;;;;;11.75;7.45;;;9.10;99.90;;;;;;4949741;28;20519;-45
2024/02/16 06:24:31;;;;;;;15.25;8.23;;;9.10;99.90;;;;;;4949621;28;20047;-46
2024/02/16 06:26:58;;;;;;;11.48;7.03;;;9.10;99.90;;;;;;4949920;28;20043;-47
2024/02/16 06:29:25;;;;;;;14.20;8.82;;;9.10;99.90;;;;;;4968343;28;20093;-47
2024/02/16 06:31:52;;;;;;;13.50;8.52;;;9.00;99.90;;;;;;4977256;28;20073;-46
2024/02/16 06:34:19;;;;;;;13.50;8.55;;;9.00;99.90;;;;;;4973453;28;20467;-46
2024/02/16 06:36:47;;;;;;;11.73;7.35;;;9.00;99.90;;;;;;4976632;28;20069;-45
2024/02/16 06:39:19;;;;;;;14.02;8.43;;;9.00;99.90;;;;;;4971189;28;20050;-44
2024/02/16 06:41:47;;;;;;;12.15;7.72;;;9.00;99.90;;;;;;4966867;28;20043;-45
2024/02/16 06:44:14;;;;;;;12.07;8.07;;;9.00;99.90;;;;;;4968776;28;20051;-46
2024/02/16 06:46:42;;;;;;;12.95;8.05;;;9.00;99.90;;;;;;4971695;28;20074;-45
2024/02/16 06:49:09;;;;;;;15.45;9.48;;;9.00;99.90;;;;;;4975359;28;20042;-43
2024/02/16 06:51:37;;;;;;;15.63;9.52;;;9.00;99.90;;;;;;4973202;28;20043;-46
2024/02/16 06:54:04;;;;;;;14.27;9.05;;;9.00;99.90;;;;;;4968460;28;20047;-49
2024/02/16 06:56:31;;;;;;;14.05;8.52;;;9.10;99.90;;;;;;4974189;28;20153;-49
2024/02/16 06:58:58;;;;;;;15.80;9.05;;;9.10;99.90;;;;;;4971010;28;20046;-45
2024/02/16 07:01:27;;;;;;;13.35;8.18;;;9.10;99.90;;;;;;4972664;28;20050;-45
2024/02/16 07:03:55;;;;;;;15.25;8.57;;;9.20;99.90;;;;;;4972486;28;20043;-46
2024/02/16 07:06:22;;;;;;;12.38;8.50;;;9.30;99.90;;;;;;4969573;28;20042;-44
2024/02/16 07:08:50;;;;;;;15.05;9.18;;;9.30;99.90;;;;;;4970155;28;20043;-45
2024/02/16 07:11:18;;;;;;;13.23;8.50;;;9.40;99.90;;;;;;4971648;28;20062;-51
2024/02/16 07:13:46;;;;;;;12.82;8.82;;;9.40;99.90;;;;;;4968968;28;20038;-43
2024/02/16 07:16:13;;;;;;;14.07;8.73;;;9.50;99.90;;;;;;4970970;28;20054;-44
2024/02/16 07:18:41;;;;;;;13.93;8.98;;;9.50;99.90;;;;;;4971182;28;20046;-46
2024/02/16 07:21:09;;;;;;;15.48;9.02;;;9.60;99.90;;;;;;4971279;28;20097;-50
2024/02/16 07:23:37;;;;;;;13.85;9.07;;;9.60;99.90;;;;;;4969085;28;20082;-46
2024/02/16 07:26:04;;;;;;;16.25;9.52;;;9.70;99.90;;;;;;4972180;28;20050;-43
2024/02/16 07:28:33;;;;;;;13.90;9.68;;;9.70;99.90;;;;;;4972191;28;20054;-48
2024/02/16 07:31:01;;;;;;;17.98;9.95;;;9.80;99.90;;;;;;4977791;28;20042;-48
2024/02/16 07:33:29;;;;;;;20.42;11.27;;;9.80;99.90;;;;;;4973552;28;20055;-44
2024/02/16 07:35:56;;;;;;;18.45;10.75;;;9.90;99.90;;;;;;4977515;28;20045;-45
2024/02/16 07:38:23;;;;;;;15.38;9.48;;;10.00;99.90;;;;;;4976907;28;20110;-45
2024/02/16 07:40:50;;;;;;;16.40;9.30;;;10.10;99.90;;;;;;4973099;28;20381;-44
2024/02/16 07:43:18;;;;;;;13.10;9.23;;;10.20;99.90;;;;;;4976250;28;20408;-45
2024/02/16 07:45:45;;;;;;;14.85;9.55;;;10.30;99.90;;;;;;4971264;28;20042;-45
2024/02/16 07:48:13;;;;;;;15.77;9.48;;;10.40;99.90;;;;;;4974489;28;20518;-46
2024/02/16 07:50:41;;;;;;;12.70;8.68;;;10.50;99.90;;;;;;4974197;28;20047;-47
2024/02/16 07:53:09;;;;;;;16.55;8.05;;;10.50;99.90;;;;;;4973577;28;20042;-45
2024/02/16 07:55:36;;;;;;;13.65;9.18;;;10.70;99.90;;;;;;4974351;28;20042;-42
2024/02/16 07:58:03;;;;;;;15.38;9.00;;;10.80;99.90;;;;;;4974016;28;20054;-47
2024/02/16 08:00:30;;;;;;;14.40;8.43;;;10.80;99.90;;;;;;4972378;28;20185;-44
2024/02/16 08:02:57;;;;;;;12.43;8.77;;;10.90;99.90;;;;;;4978725;28;20180;-46
2024/02/16 08:05:25;;;;;;;13.27;8.50;;;11.00;99.90;;;;;;4973962;28;20500;-46
2024/02/16 08:07:53;;;;;;;13.40;8.77;;;11.00;99.90;;;;;;4976804;28;20045;-44
2024/02/16 08:10:25;;;;;;;13.43;8.60;;;11.10;99.90;;;;;;4977066;28;20053;-47
2024/02/16 08:12:52;;;;;;;16.05;10.57;;;11.20;99.90;;;;;;4975527;28;20358;-45
2024/02/16 08:15:23;;;;;;;14.00;9.95;;;11.30;99.90;;;;;;4973827;28;20059;-44
2024/02/16 08:17:51;;;;;;;15.40;10.05;;;11.40;99.90;;;;;;4972284;28;20138;-45
2024/02/16 08:20:19;;;;;;;14.50;9.50;;;11.40;99.90;;;;;;4971381;28;20103;-45
2024/02/16 08:22:46;;;;;;;14.32;9.90;;;11.50;99.90;;;;;;4973326;28;20215;-45
2024/02/16 08:25:13;;;;;;;13.73;9.57;;;11.60;99.90;;;;;;4973901;28;20062;-44
2024/02/16 08:27:40;;;;;;;15.30;9.23;;;11.70;99.90;;;;;;4975108;28;20047;-45
2024/02/16 08:30:08;;;;;;;17.17;9.20;;;11.90;99.90;;;;;;4977773;28;20047;-45
2024/02/16 08:32:36;;;;;;;15.50;9.15;;;11.90;99.90;;;;;;4975925;28;20050;-45
2024/02/16 08:35:03;;;;;;;14.65;9.13;;;11.90;99.90;;;;;;4976404;28;20043;-49
2024/02/16 08:37:31;;;;;;;16.17;9.70;;;11.90;99.90;;;;;;4975964;28;20047;-48
2024/02/16 08:39:58;;;;;;;14.57;8.75;;;12.00;99.90;;;;;;4973105;28;20051;-46
2024/02/16 08:42:25;;;;;;;11.57;8.77;;;12.10;99.90;;;;;;4972641;28;20065;-43
2024/02/16 08:44:51;;;;;;;13.70;9.23;;;12.20;99.90;;;;;;4972871;28;20051;-48
2024/02/16 08:47:19;;;;;;;12.13;8.60;;;12.10;99.90;;;;;;4972786;28;20043;-46
2024/02/16 08:49:46;;;;;;;13.15;8.73;;;12.10;99.90;;;;;;4969045;28;20062;-51
2024/02/16 08:52:14;;;;;;;21.70;14.38;;;12.20;99.90;;;;;;4970550;28;20074;-46
2024/02/16 08:54:43;;;;;;;13.52;8.70;;;12.30;99.90;;;;;;4976120;28;20437;-46
2024/02/16 08:57:11;;;;;;;14.95;9.75;;;12.50;99.90;;;;;;4973692;28;20059;-47
2024/02/16 08:59:39;;;;;;;13.63;8.88;;;12.60;99.90;;;;;;4976042;28;20456;-48
2024/02/16 09:02:06;;;;;;;14.32;9.18;;;12.70;99.90;;;;;;4975549;28;20582;-47
2024/02/16 09:04:33;;;;;;;12.80;8.75;;;12.90;99.90;;;;;;4977905;28;20122;-47
2024/02/16 09:07:00;;;;;;;14.13;9.15;;;13.00;99.90;;;;;;4973809;28;20051;-47
2024/02/16 09:09:28;;;;;;;12.43;9.18;;;13.10;99.90;;;;;;4977226;28;20426;-45
2024/02/16 09:11:55;;;;;;;13.18;9.00;;;13.10;99.90;;;;;;4969851;28;20034;-45
2024/02/16 09:14:22;;;;;;;13.00;9.73;;;13.20;99.90;;;;;;4976120;28;20065;-45
2024/02/16 09:16:52;;;;;;;12.77;9.05;;;13.30;99.90;;;;;;4972195;28;20512;-46
2024/02/16 09:19:19;;;;;;;14.70;9.93;;;13.30;99.90;;;;;;4972271;28;20047;-46
2024/02/16 09:21:49;;;;;;;12.93;9.00;;;13.40;99.90;;;;;;4969446;28;20035;-44
2024/02/16 09:24:17;;;;;;;15.02;10.38;;;13.40;99.90;;;;;;4974247;28;20117;-45
2024/02/16 09:26:48;;;;;;;14.32;9.90;;;13.50;99.90;;;;;;4969514;28;20282;-45
2024/02/16 09:29:15;;;;;;;13.95;9.40;;;13.70;99.90;;;;;;4973555;28;20039;-45
2024/02/16 09:31:42;;;;;;;14.52;9.90;;;13.90;99.90;;;;;;4971838;28;20101;-47
2024/02/16 09:34:09;;;;;;;16.00;9.13;;;14.00;99.90;;;;;;4970692;28;20062;-45
2024/02/16 09:36:37;;;;;;;14.15;10.13;;;14.20;99.90;;;;;;4972245;28;20133;-49
2024/02/16 09:39:05;;;;;;;12.90;9.38;;;14.60;99.90;;;;;;4972056;28;20043;-48
2024/02/16 09:41:37;;;;;;;11.70;8.63;;;14.60;99.90;;;;;;4970136;28;20066;-47
2024/02/16 09:44:06;;;;;;;13.63;8.82;;;14.60;99.90;;;;;;4973718;28;20429;-43
2024/02/16 09:46:33;;;;;;;11.25;8.23;;;14.50;99.90;;;;;;4971408;28;20078;-47
2024/02/16 09:49:02;;;;;;;18.73;9.50;;;14.70;99.90;;;;;;4973052;28;20500;-45
2024/02/16 09:51:30;;;;;;;13.75;8.88;;;14.80;99.90;;;;;;4975549;28;20170;-45
2024/02/16 09:53:57;;;;;;;16.30;10.18;;;14.90;99.90;;;;;;4975225;28;20057;-47
2024/02/16 09:56:25;;;;;;;16.08;10.95;;;14.90;99.90;;;;;;4978430;28;20050;-45
2024/02/16 09:58:54;;;;;;;13.60;9.63;;;14.90;99.90;;;;;;4971407;28;20066;-45
2024/02/16 10:01:23;;;;;;;14.40;9.52;;;15.00;99.90;;;;;;4970968;28;20046;-46
2024/02/16 10:03:50;;;;;;;12.85;8.98;;;15.00;99.90;;;;;;4970292;28;20528;-45
2024/02/16 10:06:20;;;;;;;11.07;8.82;;;15.00;99.90;;;;;;4973630;28;20049;-44
2024/02/16 10:08:51;;;;;;;17.80;11.95;;;15.20;99.90;;;;;;4971294;28;20122;-51
2024/02/16 10:11:21;;;;;;;16.97;11.07;;;15.20;99.90;;;;;;4977987;28;20435;-43
2024/02/16 10:13:56;;;;;;;12.73;9.35;;;15.20;99.90;;;;;;4970453;28;20472;-45
2024/02/16 10:16:23;;;;;;;12.07;9.25;;;15.20;99.90;;;;;;4970608;28;20126;-44
2024/02/16 10:18:50;;;;;;;11.05;8.57;;;15.30;99.90;;;;;;4972705;28;20038;-45
2024/02/16 10:21:28;;;;;;;11.80;8.73;;;15.30;99.90;;;;;;4968321;28;20046;-47
2024/02/16 10:24:04;;;;;;;11.40;8.68;;;15.40;99.90;;;;;;4969842;28;20042;-45
2024/02/16 10:26:32;;;;;;;14.25;9.40;;;15.40;99.90;;;;;;4970234;28;20050;-46
2024/02/16 10:28:59;;;;;;;11.80;8.65;;;15.40;99.90;;;;;;4970453;28;20104;-48
2024/02/16 10:31:30;;;;;;;13.50;9.48;;;15.40;99.90;;;;;;4970175;28;20046;-46
2024/02/16 10:34:09;;;;;;;11.43;7.80;;;15.50;99.90;;;;;;4969424;28;20118;-46
2024/02/16 10:36:37;;;;;;;11.95;8.48;;;15.50;99.90;;;;;;4971489;28;20050;-46
2024/02/16 10:39:07;;;;;;;10.77;7.72;;;15.40;99.90;;;;;;4970019;28;20039;-45
2024/02/16 10:41:37;;;;;;;10.82;8.13;;;15.50;99.90;;;;;;4967322;28;20444;-45
2024/02/16 10:44:05;;;;;;;14.32;8.73;;;15.30;99.90;;;;;;4969412;28;20038;-48
2024/02/16 10:46:33;;;;;;;9.82;7.45;;;15.20;99.90;;;;;;4967700;28;20039;-46
2024/02/16 10:49:01;;;;;;;10.15;7.93;;;15.00;99.90;;;;;;4965730;28;20054;-46
2024/02/16 10:51:44;;;;;;;9.52;7.10;;;15.20;99.90;;;;;;4971997;28;20116;-46
2024/02/16 10:54:15;;;;;;;12.73;8.55;;;15.20;99.90;;;;;;4971715;28;20042;-46
2024/02/16 10:56:42;;;;;;;14.98;8.40;;;15.10;99.90;;;;;;4965471;28;20038;-43
2024/02/16 10:59:10;;;;;;;12.73;8.40;;;15.00;99.90;;;;;;4969179;28;20241;-46
2024/02/16 11:01:42;;;;;;;12.95;7.93;;;14.90;99.90;;;;;;4967138;28;20105;-46
2024/02/16 11:04:16;;;;;;;11.63;7.63;;;15.00;99.90;;;;;;4971167;28;20070;-49
2024/02/16 11:07:07;;;;;;;11.07;7.55;;;15.00;99.90;;;;;;4968078;28;20039;-47
2024/02/16 11:09:38;;;;;;;13.77;10.70;;;14.90;99.90;;;;;;4971173;28;20120;-47
2024/02/16 11:12:11;;;;;;;13.25;9.15;;;14.90;99.90;;;;;;4968770;28;20058;-46
2024/02/16 11:14:52;;;;;;;12.75;8.48;;;14.80;99.90;;;;;;4966663;28;20432;-49
2024/02/16 11:17:21;;;;;;;13.90;9.15;;;14.70;99.90;;;;;;4968104;28;20046;-47
2024/02/16 11:19:48;;;;;;;15.25;10.02;;;14.60;99.90;;;;;;4968141;28;20431;-48
2024/02/16 11:22:20;;;;;;;13.13;8.90;;;14.70;99.90;;;;;;4968997;28;20130;-46
2024/02/16 11:24:48;;;;;;;;;;;14.70;99.90;;;;;;4970715;28;20046;-42
2024/02/16 11:27:20;;;;;;;10.95;8.20;;;14.60;99.90;;;;;;4968702;28;20059;-48
2024/02/16 11:29:48;;;;;;;;;;;14.50;99.90;;;;;;4969689;28;20255;-52
2024/02/16 11:32:15;;;;;;;14.32;9.18;;;14.60;99.90;;;;;;4971996;28;20033;-42
2024/02/16 11:34:42;;;;;;;16.00;9.45;;;14.70;99.90;;;;;;4970458;28;20475;-45
2024/02/16 11:37:14;;;;;;;13.70;9.15;;;14.80;99.90;;;;;;4971421;28;20502;-50
2024/02/16 11:39:44;;;;;;;10.15;7.57;;;14.90;99.90;;;;;;4972928;28;20526;-46
2024/02/16 11:42:14;;;;;;;13.65;8.77;;;15.00;99.90;;;;;;4969427;28;20259;-45
2024/02/16 11:44:52;;;;;;;12.75;9.15;;;15.00;99.90;;;;;;4971957;28;20433;-47
2024/02/16 11:47:26;;;;;;;12.00;8.15;;;15.00;99.90;;;;;;4968388;28;20055;-48
2024/02/16 11:50:04;;;;;;;13.05;9.70;;;15.00;99.90;;;;;;4964701;28;20062;-45
2024/02/16 11:52:32;;;;;;;11.45;8.45;;;14.80;99.90;;;;;;4970240;28;20492;-47
2024/02/16 11:55:00;;;;;;;11.80;8.43;;;14.80;99.90;;;;;;4967303;28;20038;-49
2024/02/16 11:57:29;;;;;;;13.07;8.27;;;14.80;99.90;;;;;;4965286;28;20061;-47
2024/02/16 11:59:56;;;;;;;12.38;8.85;;;14.70;99.90;;;;;;4970068;28;20198;-46
2024/02/16 12:02:24;;;;;;;12.35;8.73;;;14.80;99.90;;;;;;4966738;28;20050;-46
2024/02/16 12:04:59;;;;;;;12.10;8.63;;;14.80;99.90;;;;;;4973276;28;20050;-46
2024/02/16 12:07:28;;;;;;;16.92;9.18;;;14.90;99.90;;;;;;4967998;28;20054;-46
2024/02/16 12:09:59;;;;;;;13.45;8.77;;;15.00;99.90;;;;;;4970759;28;20346;-50
2024/02/16 12:12:27;;;;;;;16.80;9.57;;;15.20;99.90;;;;;;4968212;28;20059;-47
2024/02/16 12:14:54;;;;;;;15.05;8.18;;;15.20;99.90;;;;;;4969838;28;20045;-45
2024/02/16 12:17:22;;;;;;;11.55;8.57;;;15.10;99.90;;;;;;4970478;28;20074;-44
2024/02/16 12:19:52;;;;;;;13.18;8.60;;;15.10;99.90;;;;;;4971347;28;20206;-44
2024/02/16 12:22:21;;;;;;;14.27;8.32;;;15.00;99.90;;;;;;4973545;28;20508;-46
2024/02/16 12:24:50;;;;;;;13.60;7.97;;;15.00;99.90;;;;;;4972365;28;20050;-53
2024/02/16 12:27:17;;;;;;;14.32;8.27;;;15.10;99.90;;;;;;4971499;28;20270;-46
2024/02/16 12:29:45;;;;;;;15.02;8.45;;;15.20;99.90;;;;;;4973656;28;20031;-47
2024/02/16 12:32:18;;;;;;;15.93;8.45;;;15.20;99.90;;;;;;4973006;28;20109;-48
2024/02/16 12:34:45;;;;;;;11.57;8.32;;;15.10;99.90;;;;;;4969545;28;20078;-45
2024/02/16 12:37:12;;;;;;;14.70;9.00;;;15.40;99.90;;;;;;4972190;28;20046;-45
2024/02/16 12:39:39;;;;;;;14.45;9.07;;;15.40;99.90;;;;;;4970878;28;20046;-48
2024/02/16 12:42:07;;;;;;;13.18;8.85;;;15.50;99.90;;;;;;4971252;28;20042;-46
2024/02/16 12:44:35;;;;;;;10.65;7.80;;;15.50;99.90;;;;;;4973344;28;20128;-43
2024/02/16 12:47:02;;;;;;;11.32;8.55;;;15.60;99.90;;;;;;4970386;28;20122;-46
2024/02/16 12:49:29;;;;;;;12.90;8.90;;;15.60;99.90;;;;;;4974320;28;20043;-42
2024/02/16 12:51:57;;;;;;;10.15;7.50;;;15.50;99.90;;;;;;4973480;28;20072;-48
2024/02/16 12:54:24;;;;;;;9.57;7.85;;;15.50;99.90;;;;;;4970650;28;20046;-43